sensor_id;sensor_type;location;lat;lon;timestamp;temperature;humidity
26503;DHT22;14177;51.520;6.764;2023-05-16T00:02:25;11.50;99.90
26503;DHT22;14177;51.520;6.764;2023-05-16T00:04:52;11.50;99.90
26503;DHT22;14177;51.520;6.764;2023-05-16T00:07:19;11.50;99.90
26503;DHT22;14177;51.520;6.764;2023-05-16T00:09:46;11.50;99.90
26503;DHT22;14177;51.520;6.764;2023-05-16T00:12:13;11.50;99.90
26503;DHT22;14177;51.520;6.764;2023-05-16T00:14:42;11.40;99.90
26503;DHT22;14177;51.520;6.764;2023-05-16T00:17:09;11.40;99.90
26503;DHT22;14177;51.520;6.764;2023-05-16T00:19:38;11.40;99.90
26503;DHT22;14177;51.520;6.764;2023-05-16T00:22:05;11.30;99.90
26503;DHT22;14177;51.520;6.764;2023-05-16T00:24:33;11.30;99.90
26503;DHT22;14177;51.520;6.764;2023-05-16T00:27:00;11.30;99.90
26503;DHT22;14177;51.520;6.764;2023-05-16T00:29:27;11.30;99.90
26503;DHT22;14177;51.520;6.764;2023-05-16T00:31:54;11.20;99.90
26503;DHT22;14177;51.520;6.764;2023-05-16T00:34:22;11.20;99.90
26503;DHT22;14177;51.520;6.764;2023-05-16T00:36:51;11.10;99.90
26503;DHT22;14177;51.520;6.764;2023-05-16T00:39:19;11.10;99.90
26503;DHT22;14177;51.520;6.764;2023-05-16T00:41:46;11.10;99.90
26503;DHT22;14177;51.520;6.764;2023-05-16T00:44:13;11.10;99.90
26503;DHT22;14177;51.520;6.764;2023-05-16T00:46:41;11.10;99.90
26503;DHT22;14177;51.520;6.764;2023-05-16T00:49:10;11.10;99.90
26503;DHT22;14177;51.520;6.764;2023-05-16T00:51:38;11.00;99.90
26503;DHT22;14177;51.520;6.764;2023-05-16T00:54:05;11.00;99.90
26503;DHT22;14177;51.520;6.764;2023-05-16T00:56:33;11.00;99.90
26503;DHT22;14177;51.520;6.764;2023-05-16T00:59:00;10.90;99.90
26503;DHT22;14177;51.520;6.764;2023-05-16T01:01:28;10.90;99.90
26503;DHT22;14177;51.520;6.764;2023-05-16T01:03:55;10.90;99.90
26503;DHT22;14177;51.520;6.764;2023-05-16T01:06:22;10.90;99.90
26503;DHT22;14177;51.520;6.764;2023-05-16T01:08:49;10.90;99.90
26503;DHT22;14177;51.520;6.764;2023-05-16T01:11:30;10.90;99.90
26503;DHT22;14177;51.520;6.764;2023-05-16T01:14:26;10.80;99.90
26503;DHT22;14177;51.520;6.764;2023-05-16T01:20:24;10.70;99.90
26503;DHT22;14177;51.520;6.764;2023-05-16T01:28:53;10.60;99.90
26503;DHT22;14177;51.520;6.764;2023-05-16T01:31:22;10.60;99.90
26503;DHT22;14177;51.520;6.764;2023-05-16T01:33:50;10.60;99.90
26503;DHT22;14177;51.520;6.764;2023-05-16T01:36:25;10.70;99.90
26503;DHT22;14177;51.520;6.764;2023-05-16T01:42:03;10.70;99.90
26503;DHT22;14177;51.520;6.764;2023-05-16T01:47:35;10.60;99.90
26503;DHT22;14177;51.520;6.764;2023-05-16T01:50:13;10.60;99.90
26503;DHT22;14177;51.520;6.764;2023-05-16T01:53:08;10.60;99.90
26503;DHT22;14177;51.520;6.764;2023-05-16T01:55:48;10.60;99.90
26503;DHT22;14177;51.520;6.764;2023-05-16T01:58:22;10.60;99.90
26503;DHT22;14177;51.520;6.764;2023-05-16T02:00:52;10.50;99.90
26503;DHT22;14177;51.520;6.764;2023-05-16T02:03:21;10.50;99.90
26503;DHT22;14177;51.520;6.764;2023-05-16T02:06:01;10.50;99.90
26503;DHT22;14177;51.520;6.764;2023-05-16T02:08:41;10.40;99.90
26503;DHT22;14177;51.520;6.764;2023-05-16T02:11:38;10.40;99.90
26503;DHT22;14177;51.520;6.764;2023-05-16T02:14:15;10.50;99.90
26503;DHT22;14177;51.520;6.764;2023-05-16T02:16:57;10.40;99.90
26503;DHT22;14177;51.520;6.764;2023-05-16T02:20:18;10.40;99.90
26503;DHT22;14177;51.520;6.764;2023-05-16T02:23:07;10.40;99.90
26503;DHT22;14177;51.520;6.764;2023-05-16T02:25:48;10.40;99.90
26503;DHT22;14177;51.520;6.764;2023-05-16T02:28:25;10.40;99.90
26503;DHT22;14177;51.520;6.764;2023-05-16T02:45:25;10.30;99.90
26503;DHT22;14177;51.520;6.764;2023-05-16T02:49:25;10.30;99.90
26503;DHT22;14177;51.520;6.764;2023-05-16T02:53:16;10.30;99.90
26503;DHT22;14177;51.520;6.764;2023-05-16T03:15:52;9.90;99.90
26503;DHT22;14177;51.520;6.764;2023-05-16T03:23:50;9.80;99.90
26503;DHT22;14177;51.520;6.764;2023-05-16T03:26:54;9.80;99.90
26503;DHT22;14177;51.520;6.764;2023-05-16T03:29:49;9.70;99.90
26503;DHT22;14177;51.520;6.764;2023-05-16T03:32:53;9.70;99.90
26503;DHT22;14177;51.520;6.764;2023-05-16T03:37:27;9.70;99.90
26503;DHT22;14177;51.520;6.764;2023-05-16T03:41:11;9.60;99.90
26503;DHT22;14177;51.520;6.764;2023-05-16T03:43:38;9.60;99.90
26503;DHT22;14177;51.520;6.764;2023-05-16T03:46:05;9.50;99.90
26503;DHT22;14177;51.520;6.764;2023-05-16T03:48:32;9.50;99.90
26503;DHT22;14177;51.520;6.764;2023-05-16T03:50:59;9.40;99.90
26503;DHT22;14177;51.520;6.764;2023-05-16T03:53:26;9.40;99.90
26503;DHT22;14177;51.520;6.764;2023-05-16T03:55:53;9.30;99.90
26503;DHT22;14177;51.520;6.764;2023-05-16T03:58:20;9.30;99.90
26503;DHT22;14177;51.520;6.764;2023-05-16T04:00:47;9.20;99.90
26503;DHT22;14177;51.520;6.764;2023-05-16T04:03:14;9.20;99.90
26503;DHT22;14177;51.520;6.764;2023-05-16T04:05:41;9.20;99.90
26503;DHT22;14177;51.520;6.764;2023-05-16T04:08:09;9.20;99.90
26503;DHT22;14177;51.520;6.764;2023-05-16T04:10:36;9.20;99.90
26503;DHT22;14177;51.520;6.764;2023-05-16T04:13:03;9.10;99.90
26503;DHT22;14177;51.520;6.764;2023-05-16T04:15:30;9.10;99.90
26503;DHT22;14177;51.520;6.764;2023-05-16T04:17:57;9.10;99.90
26503;DHT22;14177;51.520;6.764;2023-05-16T04:20:24;9.10;99.90
26503;DHT22;14177;51.520;6.764;2023-05-16T04:22:52;9.10;99.90
26503;DHT22;14177;51.520;6.764;2023-05-16T04:25:19;9.10;99.90
26503;DHT22;14177;51.520;6.764;2023-05-16T04:27:46;9.00;99.90
26503;DHT22;14177;51.520;6.764;2023-05-16T04:30:14;9.00;99.90
26503;DHT22;14177;51.520;6.764;2023-05-16T04:32:42;9.00;99.90
26503;DHT22;14177;51.520;6.764;2023-05-16T04:35:09;9.00;99.90
26503;DHT22;14177;51.520;6.764;2023-05-16T04:37:37;9.00;99.90
26503;DHT22;14177;51.520;6.764;2023-05-16T04:40:04;9.00;99.90
26503;DHT22;14177;51.520;6.764;2023-05-16T04:42:33;9.00;99.90
26503;DHT22;14177;51.520;6.764;2023-05-16T04:45:00;9.00;99.90
26503;DHT22;14177;51.520;6.764;2023-05-16T04:47:29;9.00;99.90
26503;DHT22;14177;51.520;6.764;2023-05-16T04:49:57;9.00;99.90
26503;DHT22;14177;51.520;6.764;2023-05-16T04:52:24;9.00;99.90
26503;DHT22;14177;51.520;6.764;2023-05-16T04:54:51;9.10;99.90
26503;DHT22;14177;51.520;6.764;2023-05-16T04:57:20;9.00;99.90
26503;DHT22;14177;51.520;6.764;2023-05-16T04:59:47;9.00;99.90
26503;DHT22;14177;51.520;6.764;2023-05-16T05:02:14;9.10;99.90
26503;DHT22;14177;51.520;6.764;2023-05-16T05:04:42;9.10;99.90
26503;DHT22;14177;51.520;6.764;2023-05-16T05:07:09;9.10;99.90
26503;DHT22;14177;51.520;6.764;2023-05-16T05:09:38;9.10;99.90
26503;DHT22;14177;51.520;6.764;2023-05-16T05:12:10;9.10;99.90
26503;DHT22;14177;51.520;6.764;2023-05-16T05:14:37;9.10;99.90
26503;DHT22;14177;51.520;6.764;2023-05-16T05:17:04;9.20;99.90
26503;DHT22;14177;51.520;6.764;2023-05-16T05:19:32;9.30;99.90
26503;DHT22;14177;51.520;6.764;2023-05-16T05:21:59;9.30;99.90
26503;DHT22;14177;51.520;6.764;2023-05-16T05:24:26;9.30;99.90
26503;DHT22;14177;51.520;6.764;2023-05-16T05:26:53;9.40;99.90
26503;DHT22;14177;51.520;6.764;2023-05-16T05:29:21;9.40;99.90
26503;DHT22;14177;51.520;6.764;2023-05-16T05:31:49;9.40;99.90
26503;DHT22;14177;51.520;6.764;2023-05-16T05:34:17;9.50;99.90
26503;DHT22;14177;51.520;6.764;2023-05-16T05:36:44;9.50;99.90
26503;DHT22;14177;51.520;6.764;2023-05-16T05:39:11;9.60;99.90
26503;DHT22;14177;51.520;6.764;2023-05-16T05:41:38;9.60;99.90
26503;DHT22;14177;51.520;6.764;2023-05-16T05:44:05;9.70;99.90
26503;DHT22;14177;51.520;6.764;2023-05-16T05:46:32;9.70;99.90
26503;DHT22;14177;51.520;6.764;2023-05-16T05:49:00;9.70;99.90
26503;DHT22;14177;51.520;6.764;2023-05-16T05:51:28;9.80;99.90
26503;DHT22;14177;51.520;6.764;2023-05-16T05:53:55;9.80;99.90
26503;DHT22;14177;51.520;6.764;2023-05-16T05:56:22;9.80;99.90
26503;DHT22;14177;51.520;6.764;2023-05-16T05:58:50;9.90;99.90
26503;DHT22;14177;51.520;6.764;2023-05-16T06:01:17;9.90;99.90
26503;DHT22;14177;51.520;6.764;2023-05-16T06:03:46;10.00;99.90
26503;DHT22;14177;51.520;6.764;2023-05-16T06:06:13;10.00;99.90
26503;DHT22;14177;51.520;6.764;2023-05-16T06:08:41;10.00;99.90
26503;DHT22;14177;51.520;6.764;2023-05-16T06:11:08;10.10;99.90
26503;DHT22;14177;51.520;6.764;2023-05-16T06:13:35;10.20;99.90
26503;DHT22;14177;51.520;6.764;2023-05-16T06:16:02;10.30;99.90
26503;DHT22;14177;51.520;6.764;2023-05-16T06:18:29;10.40;99.90
26503;DHT22;14177;51.520;6.764;2023-05-16T06:20:56;10.40;99.90
26503;DHT22;14177;51.520;6.764;2023-05-16T06:23:23;10.50;99.90
26503;DHT22;14177;51.520;6.764;2023-05-16T06:25:50;10.50;99.90
26503;DHT22;14177;51.520;6.764;2023-05-16T06:28:17;10.60;99.90
26503;DHT22;14177;51.520;6.764;2023-05-16T06:30:44;10.70;99.90
26503;DHT22;14177;51.520;6.764;2023-05-16T06:33:14;10.70;99.90
26503;DHT22;14177;51.520;6.764;2023-05-16T06:35:41;10.80;99.90
26503;DHT22;14177;51.520;6.764;2023-05-16T06:38:08;10.90;99.90
26503;DHT22;14177;51.520;6.764;2023-05-16T06:40:35;11.00;99.90
26503;DHT22;14177;51.520;6.764;2023-05-16T06:43:03;11.10;99.90
26503;DHT22;14177;51.520;6.764;2023-05-16T06:45:30;11.10;99.90
26503;DHT22;14177;51.520;6.764;2023-05-16T06:47:57;11.20;99.90
26503;DHT22;14177;51.520;6.764;2023-05-16T06:50:24;11.20;99.90
26503;DHT22;14177;51.520;6.764;2023-05-16T06:52:51;11.20;99.90
26503;DHT22;14177;51.520;6.764;2023-05-16T06:55:18;11.30;99.90
26503;DHT22;14177;51.520;6.764;2023-05-16T06:57:58;11.30;99.90
26503;DHT22;14177;51.520;6.764;2023-05-16T07:00:27;11.40;99.90
26503;DHT22;14177;51.520;6.764;2023-05-16T07:03:11;11.50;99.90
26503;DHT22;14177;51.520;6.764;2023-05-16T07:05:47;11.50;99.90
26503;DHT22;14177;51.520;6.764;2023-05-16T07:08:26;11.50;99.90
26503;DHT22;14177;51.520;6.764;2023-05-16T07:11:01;11.60;99.90
26503;DHT22;14177;51.520;6.764;2023-05-16T07:13:41;11.70;99.90
26503;DHT22;14177;51.520;6.764;2023-05-16T07:16:19;11.90;99.90
26503;DHT22;14177;51.520;6.764;2023-05-16T07:18:57;12.00;99.90
26503;DHT22;14177;51.520;6.764;2023-05-16T07:22:08;12.00;99.90
26503;DHT22;14177;51.520;6.764;2023-05-16T07:24:37;12.10;99.90
26503;DHT22;14177;51.520;6.764;2023-05-16T07:27:10;12.20;99.90
26503;DHT22;14177;51.520;6.764;2023-05-16T07:30:19;12.30;99.90
26503;DHT22;14177;51.520;6.764;2023-05-16T07:32:48;12.50;99.90
26503;DHT22;14177;51.520;6.764;2023-05-16T07:35:16;12.60;99.90
26503;DHT22;14177;51.520;6.764;2023-05-16T07:37:49;12.60;99.90
26503;DHT22;14177;51.520;6.764;2023-05-16T07:40:22;12.70;99.90
26503;DHT22;14177;51.520;6.764;2023-05-16T07:42:56;13.00;99.90
26503;DHT22;14177;51.520;6.764;2023-05-16T07:45:28;13.10;99.90
26503;DHT22;14177;51.520;6.764;2023-05-16T07:48:01;13.20;99.90
26503;DHT22;14177;51.520;6.764;2023-05-16T07:50:30;13.40;99.90
26503;DHT22;14177;51.520;6.764;2023-05-16T07:53:28;13.60;99.90
26503;DHT22;14177;51.520;6.764;2023-05-16T07:56:01;13.80;99.90
26503;DHT22;14177;51.520;6.764;2023-05-16T07:58:29;14.10;99.90
26503;DHT22;14177;51.520;6.764;2023-05-16T08:00:56;14.30;99.90
26503;DHT22;14177;51.520;6.764;2023-05-16T08:03:23;14.30;99.90
26503;DHT22;14177;51.520;6.764;2023-05-16T08:05:51;14.30;99.90
26503;DHT22;14177;51.520;6.764;2023-05-16T08:08:19;14.20;97.30
26503;DHT22;14177;51.520;6.764;2023-05-16T08:10:46;14.20;98.50
26503;DHT22;14177;51.520;6.764;2023-05-16T08:13:13;14.40;99.70
26503;DHT22;14177;51.520;6.764;2023-05-16T08:15:40;14.50;98.00
26503;DHT22;14177;51.520;6.764;2023-05-16T08:18:13;14.80;99.40
26503;DHT22;14177;51.520;6.764;2023-05-16T08:20:41;15.10;97.20
26503;DHT22;14177;51.520;6.764;2023-05-16T08:23:08;15.10;93.90
26503;DHT22;14177;51.520;6.764;2023-05-16T08:25:35;15.00;91.70
26503;DHT22;14177;51.520;6.764;2023-05-16T08:28:03;15.10;93.60
26503;DHT22;14177;51.520;6.764;2023-05-16T08:30:30;15.30;94.30
26503;DHT22;14177;51.520;6.764;2023-05-16T08:32:57;15.40;91.70
26503;DHT22;14177;51.520;6.764;2023-05-16T08:35:24;15.60;92.00
26503;DHT22;14177;51.520;6.764;2023-05-16T08:37:52;15.70;91.30
26503;DHT22;14177;51.520;6.764;2023-05-16T08:40:19;16.10;92.00
26503;DHT22;14177;51.520;6.764;2023-05-16T08:42:48;16.40;89.00
26503;DHT22;14177;51.520;6.764;2023-05-16T08:45:15;16.70;89.20
26503;DHT22;14177;51.520;6.764;2023-05-16T08:47:43;17.00;84.90
26503;DHT22;14177;51.520;6.764;2023-05-16T08:50:11;17.20;81.40
26503;DHT22;14177;51.520;6.764;2023-05-16T08:52:41;17.40;77.50
26503;DHT22;14177;51.520;6.764;2023-05-16T08:55:10;17.40;79.10
26503;DHT22;14177;51.520;6.764;2023-05-16T08:57:38;17.50;74.10
26503;DHT22;14177;51.520;6.764;2023-05-16T09:00:07;17.30;72.90
26503;DHT22;14177;51.520;6.764;2023-05-16T09:02:42;17.10;75.20
26503;DHT22;14177;51.520;6.764;2023-05-16T09:05:14;17.10;75.20
26503;DHT22;14177;51.520;6.764;2023-05-16T09:07:44;16.90;75.10
26503;DHT22;14177;51.520;6.764;2023-05-16T09:10:12;16.50;76.40
26503;DHT22;14177;51.520;6.764;2023-05-16T09:12:40;16.20;79.30
26503;DHT22;14177;51.520;6.764;2023-05-16T09:15:08;16.00;82.70
26503;DHT22;14177;51.520;6.764;2023-05-16T09:17:39;15.90;86.80
26503;DHT22;14177;51.520;6.764;2023-05-16T09:20:14;15.80;85.50
26503;DHT22;14177;51.520;6.764;2023-05-16T09:22:54;15.70;85.60
26503;DHT22;14177;51.520;6.764;2023-05-16T09:25:27;15.70;83.10
26503;DHT22;14177;51.520;6.764;2023-05-16T09:28:00;15.70;83.80
26503;DHT22;14177;51.520;6.764;2023-05-16T09:30:31;15.60;83.90
26503;DHT22;14177;51.520;6.764;2023-05-16T09:33:01;15.50;84.90
26503;DHT22;14177;51.520;6.764;2023-05-16T09:35:29;15.30;87.00
26503;DHT22;14177;51.520;6.764;2023-05-16T09:38:00;15.20;87.10
26503;DHT22;14177;51.520;6.764;2023-05-16T09:40:27;15.20;90.20
26503;DHT22;14177;51.520;6.764;2023-05-16T09:43:04;15.10;91.60
26503;DHT22;14177;51.520;6.764;2023-05-16T09:45:33;15.10;91.90
26503;DHT22;14177;51.520;6.764;2023-05-16T09:48:06;15.20;91.60
26503;DHT22;14177;51.520;6.764;2023-05-16T09:50:36;15.40;95.10
26503;DHT22;14177;51.520;6.764;2023-05-16T09:53:04;15.60;94.10
26503;DHT22;14177;51.520;6.764;2023-05-16T09:55:31;15.80;94.70
26503;DHT22;14177;51.520;6.764;2023-05-16T09:57:59;15.90;94.50
26503;DHT22;14177;51.520;6.764;2023-05-16T10:00:32;16.00;95.20
26503;DHT22;14177;51.520;6.764;2023-05-16T10:03:01;16.10;95.60
26503;DHT22;14177;51.520;6.764;2023-05-16T10:05:32;16.40;95.60
26503;DHT22;14177;51.520;6.764;2023-05-16T10:08:02;16.70;94.30
26503;DHT22;14177;51.520;6.764;2023-05-16T10:10:30;17.00;93.80
26503;DHT22;14177;51.520;6.764;2023-05-16T10:13:04;17.40;93.40
26503;DHT22;14177;51.520;6.764;2023-05-16T10:15:36;18.00;92.00
26503;DHT22;14177;51.520;6.764;2023-05-16T10:18:06;18.40;86.10
26503;DHT22;14177;51.520;6.764;2023-05-16T10:20:44;18.40;80.30
26503;DHT22;14177;51.520;6.764;2023-05-16T10:23:17;18.00;77.60
26503;DHT22;14177;51.520;6.764;2023-05-16T10:25:47;17.50;78.10
26503;DHT22;14177;51.520;6.764;2023-05-16T10:28:15;17.10;80.40
26503;DHT22;14177;51.520;6.764;2023-05-16T10:30:44;16.80;87.30
26503;DHT22;14177;51.520;6.764;2023-05-16T10:33:16;16.60;86.40
26503;DHT22;14177;51.520;6.764;2023-05-16T10:35:44;16.30;84.20
26503;DHT22;14177;51.520;6.764;2023-05-16T10:38:15;16.30;86.60
26503;DHT22;14177;51.520;6.764;2023-05-16T10:40:44;16.70;87.90
26503;DHT22;14177;51.520;6.764;2023-05-16T10:43:26;17.10;84.80
26503;DHT22;14177;51.520;6.764;2023-05-16T10:46:00;17.70;79.60
26503;DHT22;14177;51.520;6.764;2023-05-16T10:48:39;18.00;72.60
26503;DHT22;14177;51.520;6.764;2023-05-16T10:51:32;18.20;67.50
26503;DHT22;14177;51.520;6.764;2023-05-16T10:54:10;18.30;68.50
26503;DHT22;14177;51.520;6.764;2023-05-16T10:56:40;18.60;67.30
26503;DHT22;14177;51.520;6.764;2023-05-16T10:59:25;19.00;66.50
26503;DHT22;14177;51.520;6.764;2023-05-16T11:01:55;19.30;64.70
26503;DHT22;14177;51.520;6.764;2023-05-16T11:04:27;19.50;65.10
26503;DHT22;14177;51.520;6.764;2023-05-16T11:07:20;19.50;63.50
26503;DHT22;14177;51.520;6.764;2023-05-16T11:10:04;19.20;63.30
26503;DHT22;14177;51.520;6.764;2023-05-16T11:12:49;18.90;61.30
26503;DHT22;14177;51.520;6.764;2023-05-16T11:15:26;18.40;64.00
26503;DHT22;14177;51.520;6.764;2023-05-16T11:18:09;17.90;68.40
26503;DHT22;14177;51.520;6.764;2023-05-16T11:20:41;17.40;74.00
26503;DHT22;14177;51.520;6.764;2023-05-16T11:25:44;16.60;90.30
26503;DHT22;14177;51.520;6.764;2023-05-16T11:28:12;16.10;91.90
26503;DHT22;14177;51.520;6.764;2023-05-16T11:30:51;16.00;95.30
26503;DHT22;14177;51.520;6.764;2023-05-16T11:33:23;16.10;98.50
26503;DHT22;14177;51.520;6.764;2023-05-16T11:36:06;16.50;96.20
26503;DHT22;14177;51.520;6.764;2023-05-16T11:38:39;17.00;94.90
26503;DHT22;14177;51.520;6.764;2023-05-16T11:41:11;17.50;92.80
26503;DHT22;14177;51.520;6.764;2023-05-16T11:43:44;17.80;90.60
26503;DHT22;14177;51.520;6.764;2023-05-16T11:46:14;18.40;90.20
26503;DHT22;14177;51.520;6.764;2023-05-16T11:48:44;18.90;80.90
26503;DHT22;14177;51.520;6.764;2023-05-16T11:51:17;19.10;75.00
26503;DHT22;14177;51.520;6.764;2023-05-16T11:53:48;19.30;75.40
26503;DHT22;14177;51.520;6.764;2023-05-16T11:56:19;19.50;68.70
26503;DHT22;14177;51.520;6.764;2023-05-16T11:58:58;19.70;67.10
26503;DHT22;14177;51.520;6.764;2023-05-16T12:01:35;19.90;67.10
26503;DHT22;14177;51.520;6.764;2023-05-16T12:04:28;20.00;61.20
26503;DHT22;14177;51.520;6.764;2023-05-16T12:07:18;20.00;59.50
26503;DHT22;14177;51.520;6.764;2023-05-16T12:13:37;19.90;57.90
26503;DHT22;14177;51.520;6.764;2023-05-16T12:16:11;19.90;57.90
26503;DHT22;14177;51.520;6.764;2023-05-16T12:18:46;19.90;57.00
26503;DHT22;14177;51.520;6.764;2023-05-16T12:21:38;19.80;58.00
26503;DHT22;14177;51.520;6.764;2023-05-16T12:24:13;20.10;59.00
26503;DHT22;14177;51.520;6.764;2023-05-16T12:26:48;20.50;59.70
26503;DHT22;14177;51.520;6.764;2023-05-16T12:29:39;20.60;54.90
26503;DHT22;14177;51.520;6.764;2023-05-16T12:32:38;20.70;57.30
26503;DHT22;14177;51.520;6.764;2023-05-16T12:35:36;20.80;56.40
26503;DHT22;14177;51.520;6.764;2023-05-16T12:38:16;20.80;51.60
26503;DHT22;14177;51.520;6.764;2023-05-16T12:42:20;20.90;53.30
26503;DHT22;14177;51.520;6.764;2023-05-16T12:45:54;21.20;52.70
26503;DHT22;14177;51.520;6.764;2023-05-16T12:48:41;21.20;53.40
26503;DHT22;14177;51.520;6.764;2023-05-16T12:52:16;21.10;51.90
26503;DHT22;14177;51.520;6.764;2023-05-16T12:54:53;20.90;52.60
26503;DHT22;14177;51.520;6.764;2023-05-16T12:57:24;21.00;53.20
26503;DHT22;14177;51.520;6.764;2023-05-16T13:00:01;21.20;52.50
26503;DHT22;14177;51.520;6.764;2023-05-16T13:02:28;21.40;53.10
26503;DHT22;14177;51.520;6.764;2023-05-16T13:04:55;21.60;53.00
26503;DHT22;14177;51.520;6.764;2023-05-16T13:07:23;21.60;51.40
26503;DHT22;14177;51.520;6.764;2023-05-16T13:09:50;21.40;52.20
26503;DHT22;14177;51.520;6.764;2023-05-16T13:12:17;21.10;51.70
26503;DHT22;14177;51.520;6.764;2023-05-16T13:14:44;21.10;53.10
26503;DHT22;14177;51.520;6.764;2023-05-16T13:17:11;20.90;52.70
26503;DHT22;14177;51.520;6.764;2023-05-16T13:19:38;20.80;52.10
26503;DHT22;14177;51.520;6.764;2023-05-16T13:22:05;20.50;52.50
26503;DHT22;14177;51.520;6.764;2023-05-16T13:24:32;20.10;53.60
26503;DHT22;14177;51.520;6.764;2023-05-16T13:26:59;19.80;54.40
26503;DHT22;14177;51.520;6.764;2023-05-16T13:29:26;19.60;55.60
26503;DHT22;14177;51.520;6.764;2023-05-16T13:31:53;19.40;55.70
26503;DHT22;14177;51.520;6.764;2023-05-16T13:34:20;19.20;55.70
26503;DHT22;14177;51.520;6.764;2023-05-16T13:36:47;18.90;56.30
26503;DHT22;14177;51.520;6.764;2023-05-16T13:39:20;18.70;56.20
26503;DHT22;14177;51.520;6.764;2023-05-16T13:41:48;18.60;57.20
26503;DHT22;14177;51.520;6.764;2023-05-16T13:44:15;18.70;57.90
26503;DHT22;14177;51.520;6.764;2023-05-16T13:46:43;18.90;57.90
26503;DHT22;14177;51.520;6.764;2023-05-16T13:49:10;19.10;58.10
26503;DHT22;14177;51.520;6.764;2023-05-16T13:51:37;19.50;56.80
26503;DHT22;14177;51.520;6.764;2023-05-16T13:54:04;19.60;56.70
26503;DHT22;14177;51.520;6.764;2023-05-16T13:56:31;19.60;55.80
26503;DHT22;14177;51.520;6.764;2023-05-16T13:58:58;19.30;56.30
26503;DHT22;14177;51.520;6.764;2023-05-16T14:01:32;19.00;55.90
26503;DHT22;14177;51.520;6.764;2023-05-16T14:04:00;18.60;55.90
26503;DHT22;14177;51.520;6.764;2023-05-16T14:06:27;18.30;57.10
26503;DHT22;14177;51.520;6.764;2023-05-16T14:08:54;18.30;58.20
26503;DHT22;14177;51.520;6.764;2023-05-16T14:11:21;18.60;58.50
26503;DHT22;14177;51.520;6.764;2023-05-16T14:13:56;18.90;55.40
26503;DHT22;14177;51.520;6.764;2023-05-16T14:16:23;19.20;57.00
26503;DHT22;14177;51.520;6.764;2023-05-16T14:18:51;19.60;54.80
26503;DHT22;14177;51.520;6.764;2023-05-16T14:21:18;19.90;55.60
26503;DHT22;14177;51.520;6.764;2023-05-16T14:23:45;20.10;54.70
26503;DHT22;14177;51.520;6.764;2023-05-16T14:26:12;20.00;53.30
26503;DHT22;14177;51.520;6.764;2023-05-16T14:28:39;19.70;53.90
26503;DHT22;14177;51.520;6.764;2023-05-16T14:31:07;19.30;53.30
26503;DHT22;14177;51.520;6.764;2023-05-16T14:33:34;18.80;54.40
26503;DHT22;14177;51.520;6.764;2023-05-16T14:36:00;18.40;55.60
26503;DHT22;14177;51.520;6.764;2023-05-16T14:38:27;18.10;56.20
26503;DHT22;14177;51.520;6.764;2023-05-16T14:40:54;17.70;56.90
26503;DHT22;14177;51.520;6.764;2023-05-16T14:43:21;17.50;57.10
26503;DHT22;14177;51.520;6.764;2023-05-16T14:45:48;17.20;57.90
26503;DHT22;14177;51.520;6.764;2023-05-16T14:48:15;17.10;58.40
26503;DHT22;14177;51.520;6.764;2023-05-16T14:50:42;17.00;59.60
26503;DHT22;14177;51.520;6.764;2023-05-16T14:53:09;16.80;60.10
26503;DHT22;14177;51.520;6.764;2023-05-16T14:55:37;16.70;60.90
26503;DHT22;14177;51.520;6.764;2023-05-16T14:58:04;16.70;61.50
26503;DHT22;14177;51.520;6.764;2023-05-16T15:00:31;16.80;62.10
26503;DHT22;14177;51.520;6.764;2023-05-16T15:02:58;16.80;61.60
26503;DHT22;14177;51.520;6.764;2023-05-16T15:05:26;16.90;62.30
26503;DHT22;14177;51.520;6.764;2023-05-16T15:07:54;16.90;61.70
26503;DHT22;14177;51.520;6.764;2023-05-16T15:10:22;16.90;62.10
26503;DHT22;14177;51.520;6.764;2023-05-16T15:12:49;16.80;61.70
26503;DHT22;14177;51.520;6.764;2023-05-16T15:15:16;16.70;62.60
26503;DHT22;14177;51.520;6.764;2023-05-16T15:17:43;16.60;63.70
26503;DHT22;14177;51.520;6.764;2023-05-16T15:20:11;16.50;64.20
26503;DHT22;14177;51.520;6.764;2023-05-16T15:22:38;16.40;64.40
26503;DHT22;14177;51.520;6.764;2023-05-16T15:25:07;16.30;65.60
26503;DHT22;14177;51.520;6.764;2023-05-16T15:27:36;16.30;66.10
26503;DHT22;14177;51.520;6.764;2023-05-16T15:30:04;16.40;66.90
26503;DHT22;14177;51.520;6.764;2023-05-16T15:32:31;16.40;67.40
26503;DHT22;14177;51.520;6.764;2023-05-16T15:34:58;16.40;68.40
26503;DHT22;14177;51.520;6.764;2023-05-16T15:37:25;16.30;69.30
26503;DHT22;14177;51.520;6.764;2023-05-16T15:39:52;16.20;71.00
26503;DHT22;14177;51.520;6.764;2023-05-16T15:42:20;16.00;72.40
26503;DHT22;14177;51.520;6.764;2023-05-16T15:44:47;15.70;74.90
26503;DHT22;14177;51.520;6.764;2023-05-16T15:47:14;15.60;79.00
26503;DHT22;14177;51.520;6.764;2023-05-16T15:49:41;15.50;81.30
26503;DHT22;14177;51.520;6.764;2023-05-16T15:52:08;15.40;83.00
26503;DHT22;14177;51.520;6.764;2023-05-16T15:54:35;15.30;85.30
26503;DHT22;14177;51.520;6.764;2023-05-16T15:57:02;15.30;81.80
26503;DHT22;14177;51.520;6.764;2023-05-16T15:59:30;15.20;79.50
26503;DHT22;14177;51.520;6.764;2023-05-16T16:01:57;15.20;78.90
26503;DHT22;14177;51.520;6.764;2023-05-16T16:04:24;15.20;79.90
26503;DHT22;14177;51.520;6.764;2023-05-16T16:06:51;15.30;81.10
26503;DHT22;14177;51.520;6.764;2023-05-16T16:09:18;15.40;81.00
26503;DHT22;14177;51.520;6.764;2023-05-16T16:11:47;15.50;81.50
26503;DHT22;14177;51.520;6.764;2023-05-16T16:14:16;15.60;82.50
26503;DHT22;14177;51.520;6.764;2023-05-16T16:16:45;15.70;81.90
26503;DHT22;14177;51.520;6.764;2023-05-16T16:19:22;15.80;82.70
26503;DHT22;14177;51.520;6.764;2023-05-16T16:22:22;15.90;84.50
26503;DHT22;14177;51.520;6.764;2023-05-16T16:25:26;15.90;85.10
26503;DHT22;14177;51.520;6.764;2023-05-16T16:28:11;15.80;86.30
26503;DHT22;14177;51.520;6.764;2023-05-16T16:31:02;15.70;87.30
26503;DHT22;14177;51.520;6.764;2023-05-16T16:33:55;15.60;89.80
26503;DHT22;14177;51.520;6.764;2023-05-16T16:36:46;15.60;90.80
26503;DHT22;14177;51.520;6.764;2023-05-16T16:39:21;15.60;92.10
26503;DHT22;14177;51.520;6.764;2023-05-16T16:41:53;15.50;92.50
26503;DHT22;14177;51.520;6.764;2023-05-16T16:44:35;15.50;92.90
26503;DHT22;14177;51.520;6.764;2023-05-16T16:47:38;15.40;93.70
26503;DHT22;14177;51.520;6.764;2023-05-16T16:50:25;15.40;93.80
26503;DHT22;14177;51.520;6.764;2023-05-16T16:52:57;15.20;94.20
26503;DHT22;14177;51.520;6.764;2023-05-16T16:55:28;15.20;94.20
26503;DHT22;14177;51.520;6.764;2023-05-16T16:57:59;15.10;94.80
26503;DHT22;14177;51.520;6.764;2023-05-16T17:00:40;15.00;95.70
26503;DHT22;14177;51.520;6.764;2023-05-16T17:03:26;14.90;96.10
26503;DHT22;14177;51.520;6.764;2023-05-16T17:05:56;14.80;96.90
26503;DHT22;14177;51.520;6.764;2023-05-16T17:08:33;14.80;97.40
26503;DHT22;14177;51.520;6.764;2023-05-16T17:11:40;14.70;97.50
26503;DHT22;14177;51.520;6.764;2023-05-16T17:14:14;14.60;97.80